Time;durP1;ratioP1;P1;durP2;ratioP2;P2;SDS_P1;SDS_P2;PMS_P1;PMS_P2;Temp;Humidity;BMP_temperature;BMP_pressure;BME280_temperature;BME280_humidity;BME280_pressure;Samples;Min_cycle;Max_cycle;Signal;HPM_P1;HPM_P2
2022/12/31 00:01:53;;;;;;;3.25;1.33;;;;;;;5.07;100.00;97791.44;4943336;28;20051;-82
2022/12/31 00:04:20;;;;;;;5.43;1.33;;;;;;;4.91;100.00;97772.59;4946567;29;20057;-82
2022/12/31 00:06:47;;;;;;;7.10;1.65;;;;;;;5.16;100.00;97815.97;4955375;28;20067;-82
2022/12/31 00:09:14;;;;;;;6.22;1.30;;;;;;;5.20;100.00;97820.03;4970010;28;20062;-84
2022/12/31 00:11:40;;;;;;;5.20;1.42;;;;;;;5.26;100.00;97808.47;4953306;28;20052;-84
2022/12/31 00:14:07;;;;;;;8.15;2.13;;;;;;;4.87;100.00;97784.06;4948137;28;20425;-84
2022/12/31 00:16:39;;;;;;;4.05;1.40;;;;;;;5.21;100.00;97821.72;4939316;28;20063;-84
2022/12/31 00:19:08;;;;;;;10.02;2.42;;;;;;;5.50;100.00;97879.56;4941146;28;20051;-81
2022/12/31 00:21:35;;;;;;;5.88;1.50;;;;;;;5.07;100.00;97851.09;4954134;28;20052;-80
2022/12/31 00:24:03;;;;;;;6.82;1.95;;;;;;;5.24;100.00;97901.97;4950018;28;20044;-81
2022/12/31 00:26:32;;;;;;;6.00;1.50;;;;;;;5.20;100.00;97886.66;4938817;28;20044;-81
2022/12/31 00:29:00;;;;;;;4.65;1.30;;;;;;;5.40;100.00;97912.22;4952103;28;20439;-82
2022/12/31 00:31:30;;;;;;;5.63;1.30;;;;;;;5.17;100.00;97889.44;4948066;28;20408;-82
2022/12/31 00:33:58;;;;;;;7.20;1.80;;;;;;;5.32;100.00;97904.91;4952442;28;20062;-81
2022/12/31 00:36:33;;;;;;;6.90;2.15;;;;;;;5.29;100.00;97907.69;4944227;28;20051;-82
2022/12/31 00:39:02;;;;;;;3.97;1.30;;;;;;;5.26;100.00;97927.81;4939415;28;20067;-82
2022/12/31 00:41:29;;;;;;;9.13;1.60;;;;;;;5.14;100.00;97909.44;4947966;29;20054;-82
2022/12/31 00:43:56;;;;;;;7.22;1.60;;;;;;;4.34;100.00;97820.91;4943060;28;20478;-82
2022/12/31 00:46:24;;;;;;;6.35;1.73;;;;;;;4.64;100.00;97882.22;4940881;28;20048;-82
2022/12/31 00:48:51;;;;;;;8.60;1.70;;;;;;;4.63;100.00;97882.28;4945456;28;20051;-83
2022/12/31 00:51:21;;;;;;;5.72;1.50;;;;;;;5.03;100.00;97929.16;4949351;28;20062;-81
2022/12/31 00:53:47;;;;;;;4.68;1.80;;;;;;;4.92;100.00;97915.09;4942659;28;20501;-82
2022/12/31 00:56:19;;;;;;;8.65;2.00;;;;;;;4.84;100.00;97917.31;4952640;28;20059;-82
2022/12/31 00:58:46;;;;;;;10.88;2.30;;;;;;;4.88;100.00;97962.84;4953212;29;20497;-82
2022/12/31 01:01:18;;;;;;;8.27;1.80;;;;;;;5.15;100.00;97990.69;4950801;29;20043;-82
2022/12/31 01:03:47;;;;;;;6.93;1.90;;;;;;;4.96;100.00;97962.44;4953862;28;20094;-83
2022/12/31 01:06:15;;;;;;;5.90;1.63;;;;;;;5.07;100.00;98000.69;4953047;29;20055;-84
2022/12/31 01:08:42;;;;;;;10.05;2.25;;;;;;;4.94;100.00;97987.63;4952697;29;20417;-84
2022/12/31 01:11:23;;;;;;;12.57;2.90;;;;;;;4.97;100.00;97984.81;4941541;28;20056;-83
2022/12/31 01:13:50;;;;;;;11.38;3.97;;;;;;;4.95;100.00;98010.00;4952455;29;20460;-83
2022/12/31 01:16:19;;;;;;;12.77;4.30;;;;;;;4.90;100.00;97999.91;4958416;28;20055;-82
2022/12/31 01:18:46;;;;;;;7.10;1.67;;;;;;;4.78;100.00;97990.28;4948279;28;20052;-82
2022/12/31 01:21:13;;;;;;;7.63;1.50;;;;;;;5.06;100.00;98020.59;4967925;28;20070;-82
2022/12/31 01:23:41;;;;;;;10.48;2.63;;;;;;;4.92;100.00;98024.00;4950815;28;20639;-83
2022/12/31 01:26:10;;;;;;;8.07;1.60;;;;;;;4.50;100.00;97976.28;4944467;29;20055;-82
2022/12/31 01:28:37;;;;;;;4.55;1.70;;;;;;;4.63;100.00;97997.16;4948659;29;20773;-82
2022/12/31 01:31:09;;;;;;;5.35;1.95;;;;;;;4.91;100.00;98005.94;4944872;29;20054;-82
2022/12/31 01:33:37;;;;;;;7.97;2.33;;;;;;;5.03;100.00;98048.47;4947052;29;20054;-82
2022/12/31 01:36:10;;;;;;;6.80;1.60;;;;;;;4.81;100.00;98028.13;4953103;28;20063;-82
2022/12/31 01:38:37;;;;;;;;;;;;;;;4.98;100.00;98079.03;4953562;28;20055;-82
2022/12/31 01:41:04;;;;;;;8.45;1.50;;;;;;;4.75;100.00;98050.06;4951315;28;19922;-82
2022/12/31 01:43:55;;;;;;;6.40;2.03;;;;;;;4.91;100.00;98083.72;4952347;29;20051;-82
2022/12/31 01:46:57;;;;;;;4.45;1.75;;;;;;;4.64;100.00;98034.25;4952516;28;20043;-83
2022/12/31 01:49:38;;;;;;;7.75;1.85;;;;;;;4.95;100.00;98117.16;4951991;28;20475;-82
2022/12/31 01:52:19;;;;;;;5.97;2.28;;;;;;;4.53;100.00;98079.78;4952148;28;20058;-82
2022/12/31 01:55:01;;;;;;;5.50;1.67;;;;;;;4.56;100.00;98087.34;4960150;28;20114;-82
2022/12/31 01:57:29;;;;;;;4.73;1.60;;;;;;;4.83;100.00;98146.38;4952608;29;20062;-82
2022/12/31 01:59:57;;;;;;;6.93;1.88;;;;;;;4.68;100.00;98136.88;4950795;28;20571;-82
2022/12/31 02:02:24;;;;;;;8.93;1.70;;;;;;;4.50;100.00;98118.81;4942465;28;20051;-82
2022/12/31 02:04:54;;;;;;;6.82;2.00;;;;;;;4.18;100.00;98072.16;4948250;28;20476;-82
2022/12/31 02:07:22;;;;;;;6.75;1.50;;;;;;;4.59;100.00;98140.78;4952254;28;20051;-82
2022/12/31 02:09:49;;;;;;;3.08;1.40;;;;;;;4.63;100.00;98120.72;4938435;28;20403;-82
2022/12/31 02:12:15;;;;;;;8.35;1.83;;;;;;;4.36;100.00;98103.19;4968371;28;21003;-82
2022/12/31 02:14:53;;;;;;;11.07;1.98;;;;;;;4.61;100.00;98145.91;4953816;28;20066;-82
2022/12/31 02:17:32;;;;;;;6.22;1.55;;;;;;;4.62;100.00;98160.50;4952317;29;20058;-82
2022/12/31 02:20:17;;;;;;;6.07;1.33;;;;;;;4.69;100.00;98187.75;4962021;28;20055;-83
2022/12/31 02:23:02;;;;;;;5.65;1.60;;;;;;;4.69;100.00;98192.94;4953220;28;20070;-82
2022/12/31 02:25:48;;;;;;;8.27;1.50;;;;;;;4.68;100.00;98199.91;4962550;28;20091;-83
2022/12/31 02:28:15;;;;;;;4.95;1.40;;;;;;;4.68;100.00;98202.50;4960347;28;20055;-82
2022/12/31 02:30:49;;;;;;;8.48;1.60;;;;;;;4.50;100.00;98203.50;4962397;28;20456;-83
2022/12/31 02:33:24;;;;;;;6.93;1.90;;;;;;;4.55;100.00;98212.69;4950842;28;20055;-82
2022/12/31 02:35:56;;;;;;;6.07;1.83;;;;;;;4.36;100.00;98191.25;4947148;28;20111;-83
2022/12/31 02:38:29;;;;;;;4.88;1.63;;;;;;;4.41;100.00;98212.59;4934343;29;20062;-83
2022/12/31 02:40:57;;;;;;;5.35;1.48;;;;;;;4.01;100.00;98146.50;4950401;28;20055;-82
2022/12/31 02:43:25;;;;;;;5.28;1.42;;;;;;;4.21;100.00;98192.06;4940548;29;20043;-83
2022/12/31 02:46:05;;;;;;;4.97;1.50;;;;;;;4.18;100.00;98190.47;4951974;28;20062;-84
2022/12/31 02:48:32;;;;;;;4.95;1.40;;;;;;;4.31;100.00;98222.56;4953121;28;20110;-84
2022/12/31 02:51:08;;;;;;;7.00;1.63;;;;;;;4.06;100.00;98183.34;4955230;28;20055;-82
2022/12/31 02:53:37;;;;;;;6.53;2.00;;;;;;;4.23;100.00;98224.72;4940392;28;20039;-82
2022/12/31 02:56:32;;;;;;;8.25;1.92;;;;;;;3.88;100.00;98173.00;4952861;28;20059;-83
2022/12/31 03:02:14;;;;;;;7.57;1.67;;;;;;;4.15;100.00;98217.34;4947370;28;20055;-82
2022/12/31 03:04:53;;;;;;;6.57;1.95;;;;;;;4.17;100.00;98231.06;4952241;28;20059;-83
2022/12/31 03:07:31;;;;;;;5.93;1.60;;;;;;;4.01;100.00;98203.47;4938679;28;20055;-82
2022/12/31 03:10:00;;;;;;;11.23;1.88;;;;;;;3.98;100.00;98200.13;4951190;28;20051;-83
2022/12/31 03:12:45;;;;;;;7.05;1.60;;;;;;;4.11;100.00;98212.44;4956307;28;20054;-83
2022/12/31 03:15:20;;;;;;;6.45;1.92;;;;;;;4.19;100.00;98231.81;4953070;28;20051;-82
2022/12/31 03:18:04;;;;;;;5.45;1.50;;;;;;;4.09;100.00;98235.81;4950770;28;20051;-83
2022/12/31 03:23:38;;;;;;;7.97;1.70;;;;;;;4.08;100.00;98239.31;4955906;28;20536;-83
2022/12/31 03:26:11;;;;;;;3.03;1.35;;;;;;;3.83;100.00;98224.19;4970133;28;20058;-82
2022/12/31 03:28:41;;;;;;;3.88;1.52;;;;;;;4.10;100.00;98258.19;4954598;28;20047;-82
2022/12/31 03:31:08;;;;;;;6.38;1.52;;;;;;;3.90;100.00;98253.19;4957962;28;20446;-83
2022/12/31 03:33:38;;;;;;;5.20;1.60;;;;;;;4.01;100.00;98256.06;4953468;28;20066;-82
2022/12/31 03:36:12;;;;;;;4.53;1.50;;;;;;;4.06;100.00;98284.34;4954783;29;20066;-82
2022/12/31 03:38:40;;;;;;;8.70;1.92;;;;;;;3.48;100.00;98207.81;4956276;28;20055;-82
2022/12/31 03:41:08;;;;;;;4.60;1.40;;;;;;;3.72;100.00;98263.53;4953438;28;20191;-82
2022/12/31 03:43:35;;;;;;;4.55;1.50;;;;;;;3.58;100.00;98222.81;4944913;28;20469;-82
2022/12/31 03:46:02;;;;;;;6.90;2.40;;;;;;;3.40;100.00;98198.69;4954630;28;20105;-82
2022/12/31 03:48:29;;;;;;;3.53;1.45;;;;;;;3.70;100.00;98265.38;4955889;28;20074;-82
2022/12/31 03:50:55;;;;;;;3.92;1.48;;;;;;;3.36;100.00;98232.53;4946731;29;20071;-82
2022/12/31 03:53:22;;;;;;;4.63;1.70;;;;;;;3.54;100.00;98279.94;4936689;28;20489;-82
2022/12/31 03:55:51;;;;;;;6.20;1.60;;;;;;;3.64;100.00;98286.34;4947208;29;20715;-83
2022/12/31 03:58:17;;;;;;;2.53;1.20;;;;;;;3.58;100.00;98291.84;4952791;28;20054;-82
2022/12/31 04:00:44;;;;;;;6.07;1.40;;;;;;;3.39;100.00;98263.41;4944201;29;20473;-82
2022/12/31 04:03:11;;;;;;;4.57;1.40;;;;;;;3.58;100.00;98292.66;4952663;28;20047;-82
2022/12/31 04:05:38;;;;;;;3.95;1.40;;;;;;;3.41;100.00;98264.19;4954281;29;20110;-82
2022/12/31 04:08:04;;;;;;;7.53;1.33;;;;;;;3.26;100.00;98263.19;4964411;28;20055;-82
2022/12/31 04:10:31;;;;;;;5.35;1.35;;;;;;;3.44;100.00;98310.59;4953214;29;20051;-82
2022/12/31 04:13:01;;;;;;;3.47;1.40;;;;;;;3.23;100.00;98278.81;4951564;28;20560;-82
2022/12/31 04:15:27;;;;;;;5.30;1.50;;;;;;;3.52;100.00;98323.16;4969087;28;20059;-82
2022/12/31 04:17:54;;;;;;;3.75;1.38;;;;;;;3.07;100.00;98289.03;4950523;28;20055;-82
2022/12/31 04:20:21;;;;;;;5.03;1.27;;;;;;;3.18;100.00;98306.66;4952608;28;20059;-82
2022/12/31 04:22:48;;;;;;;4.28;1.70;;;;;;;3.28;100.00;98327.75;4953595;28;20043;-82
2022/12/31 04:25:14;;;;;;;3.63;1.40;;;;;;;3.19;100.00;98324.69;4954305;28;20528;-82
2022/12/31 04:27:44;;;;;;;7.45;1.88;;;;;;;2.85;100.00;98276.25;4954988;28;20481;-82
2022/12/31 04:30:12;;;;;;;10.32;1.80;;;;;;;3.36;100.00;98356.69;4953253;28;20047;-83
2022/12/31 04:32:39;;;;;;;6.25;1.67;;;;;;;2.99;100.00;98312.69;4953777;29;20054;-83
2022/12/31 04:35:06;;;;;;;5.20;1.63;;;;;;;3.18;100.00;98353.19;4969707;28;20058;-82
2022/12/31 04:37:33;;;;;;;6.75;1.75;;;;;;;2.96;100.00;98337.81;4950092;28;20098;-83
2022/12/31 04:40:00;;;;;;;3.97;1.52;;;;;;;3.16;100.00;98378.28;4952620;28;20062;-82
2022/12/31 04:42:32;;;;;;;5.32;1.55;;;;;;;2.74;100.00;98323.25;4954114;28;20051;-82
2022/12/31 04:44:58;;;;;;;5.03;1.73;;;;;;;2.66;100.00;98307.25;4953431;28;20458;-83
2022/12/31 04:47:25;;;;;;;6.60;1.50;;;;;;;2.70;100.00;98334.63;4943769;28;20051;-83
2022/12/31 04:49:52;;;;;;;2.85;1.15;;;;;;;2.59;100.00;98321.34;4963554;28;20060;-82
2022/12/31 04:52:18;;;;;;;5.15;1.45;;;;;;;2.82;100.00;98359.09;4943543;28;20081;-82
2022/12/31 04:54:45;;;;;;;4.85;1.70;;;;;;;2.85;100.00;98383.06;4948897;29;20098;-83
2022/12/31 04:57:12;;;;;;;3.72;1.58;;;;;;;2.97;100.00;98394.59;4953418;28;20055;-83
2022/12/31 04:59:38;;;;;;;4.28;1.48;;;;;;;2.74;100.00;98387.03;4953436;28;20047;-83
2022/12/31 05:02:05;;;;;;;7.82;1.52;;;;;;;2.71;100.00;98388.00;4952947;29;20043;-82
2022/12/31 05:04:32;;;;;;;2.95;1.33;;;;;;;2.74;100.00;98405.94;4954245;28;20047;-82
2022/12/31 05:06:59;;;;;;;5.70;1.67;;;;;;;2.58;100.00;98382.50;4954206;28;20054;-82
2022/12/31 05:09:27;;;;;;;6.70;1.60;;;;;;;2.59;100.00;98394.53;4953890;28;20079;-81
2022/12/31 05:11:53;;;;;;;2.20;1.23;;;;;;;2.66;100.00;98410.63;4952281;29;20054;-82
2022/12/31 05:14:21;;;;;;;3.30;1.58;;;;;;;2.52;100.00;98377.59;4952849;28;20047;-82
2022/12/31 05:16:47;;;;;;;3.10;1.40;;;;;;;2.70;100.00;98422.50;4953357;28;20058;-82
2022/12/31 05:19:14;;;;;;;4.05;1.42;;;;;;;2.46;100.00;98399.38;4949103;29;20048;-82
2022/12/31 05:21:41;;;;;;;2.97;1.50;;;;;;;2.82;100.00;98462.50;4948822;29;20059;-82
2022/12/31 05:24:08;;;;;;;5.82;1.42;;;;;;;2.38;100.00;98409.19;4953699;28;20452;-81
2022/12/31 05:26:35;;;;;;;2.65;1.13;;;;;;;2.31;100.00;98414.66;4953614;28;20047;-81
2022/12/31 05:29:02;;;;;;;4.40;1.45;;;;;;;2.19;100.00;98408.25;4954147;29;20046;-82
2022/12/31 05:31:28;;;;;;;6.25;1.48;;;;;;;2.40;100.00;98434.94;4948638;28;20498;-83
2022/12/31 05:33:55;;;;;;;3.38;1.33;;;;;;;2.50;100.00;98438.84;4952692;29;20445;-83
2022/12/31 05:36:22;;;;;;;7.07;1.90;;;;;;;2.49;100.00;98444.06;4952495;29;20465;-82
2022/12/31 05:38:49;;;;;;;2.60;1.33;;;;;;;2.24;100.00;98414.06;4953589;28;20062;-82
2022/12/31 05:41:15;;;;;;;3.75;1.27;;;;;;;2.30;100.00;98420.72;4952020;29;20058;-83
2022/12/31 05:43:42;;;;;;;3.55;1.30;;;;;;;2.30;100.00;98429.31;4954354;28;20482;-82
2022/12/31 05:46:09;;;;;;;4.93;1.40;;;;;;;2.30;100.00;98437.03;4952939;29;20118;-82
2022/12/31 05:48:35;;;;;;;3.78;1.65;;;;;;;2.34;100.00;98437.75;4954043;28;20466;-82
2022/12/31 05:51:02;;;;;;;6.50;1.65;;;;;;;2.28;100.00;98441.44;4952371;29;20051;-82
2022/12/31 05:53:29;;;;;;;4.72;1.30;;;;;;;2.24;100.00;98426.97;4949942;28;20043;-82
2022/12/31 05:55:56;;;;;;;4.97;1.48;;;;;;;2.22;100.00;98423.63;4948909;29;20067;-82
2022/12/31 05:58:22;;;;;;;7.45;1.50;;;;;;;2.12;100.00;98424.91;4966600;28;20413;-82
2022/12/31 06:00:51;;;;;;;5.57;1.60;;;;;;;2.29;100.00;98461.22;4952090;29;20055;-83
2022/12/31 06:03:17;;;;;;;4.05;1.40;;;;;;;1.83;100.00;98396.75;4946097;29;20078;-82
2022/12/31 06:05:44;;;;;;;2.55;1.30;;;;;;;2.22;100.00;98467.53;4951765;28;20138;-82
2022/12/31 06:08:11;;;;;;;5.93;1.80;;;;;;;1.75;100.00;98405.69;4947850;29;20114;-82
2022/12/31 06:10:41;;;;;;;3.83;1.40;;;;;;;1.96;100.00;98447.88;4949346;29;20059;-82
2022/12/31 06:13:08;;;;;;;3.08;1.40;;;;;;;2.00;100.00;98467.50;4950318;29;20051;-82
2022/12/31 06:15:39;;;;;;;3.33;1.48;;;;;;;2.05;100.00;98491.41;4961611;28;20051;-83
2022/12/31 06:18:06;;;;;;;2.83;1.20;;;;;;;2.00;100.00;98490.75;4965485;28;20051;-82
2022/12/31 06:20:35;;;;;;;3.28;1.40;;;;;;;1.63;100.00;98453.44;4949724;28;20055;-83
2022/12/31 06:23:02;;;;;;;5.82;1.80;;;;;;;1.74;100.00;98484.00;4957384;28;20048;-83
2022/12/31 06:25:29;;;;;;;3.13;1.40;;;;;;;1.46;100.00;98430.88;4963660;28;20058;-82
2022/12/31 06:27:56;;;;;;;4.22;1.30;;;;;;;1.25;100.00;98438.47;4951835;28;20058;-83
2022/12/31 06:30:23;;;;;;;3.97;1.38;;;;;;;1.50;100.00;98484.00;4944097;28;20422;-82
2022/12/31 06:32:49;;;;;;;2.03;1.23;;;;;;;1.32;100.00;98457.16;4944942;28;20083;-83
2022/12/31 06:35:16;;;;;;;12.18;2.15;;;;;;;1.38;100.00;98474.13;4945951;29;20065;-83
2022/12/31 06:37:43;;;;;;;5.95;1.67;;;;;;;1.60;100.00;98505.16;4951431;28;20066;-82
2022/12/31 06:40:10;;;;;;;3.63;1.40;;;;;;;1.12;100.00;98414.91;4963964;28;20059;-83
2022/12/31 06:42:37;;;;;;;5.43;1.55;;;;;;;1.37;100.00;98446.69;4949322;28;20050;-82
2022/12/31 06:45:05;;;;;;;3.55;1.48;;;;;;;1.44;100.00;98469.59;4946511;28;20052;-82
2022/12/31 06:47:31;;;;;;;2.45;1.45;;;;;;;1.48;100.00;98475.50;4953002;28;20063;-82
2022/12/31 06:49:58;;;;;;;5.55;2.13;;;;;;;1.48;100.00;98467.75;4955032;29;20055;-83
2022/12/31 06:52:25;;;;;;;3.60;1.20;;;;;;;1.76;100.00;98529.47;4947371;28;20052;-82
2022/12/31 06:54:52;;;;;;;5.32;2.08;;;;;;;1.45;100.00;98475.59;4959152;28;20062;-82
2022/12/31 06:57:19;;;;;;;4.25;1.40;;;;;;;1.51;100.00;98494.28;4952081;29;20050;-82
2022/12/31 06:59:46;;;;;;;4.55;1.40;;;;;;;1.36;100.00;98471.59;4953522;28;20413;-82
2022/12/31 07:02:39;;;;;;;2.35;1.10;;;;;;;1.26;100.00;98478.03;4953603;28;20058;-82
2022/12/31 07:05:05;;;;;;;1.98;1.20;;;;;;;1.64;100.00;98540.25;4955143;28;20106;-82
2022/12/31 07:07:48;;;;;;;4.80;1.50;;;;;;;1.48;100.00;98527.06;4949958;28;20055;-82
2022/12/31 07:10:38;;;;;;;1.67;1.27;;;;;;;1.53;100.00;98558.69;4952626;28;20051;-81
2022/12/31 07:13:15;;;;;;;8.25;2.20;;;;;;;1.38;100.00;98567.81;4955472;29;20107;-81
2022/12/31 07:16:16;;;;;;;5.15;1.58;;;;;;;1.37;100.00;98565.28;4970949;28;20450;-81
2022/12/31 07:19:01;;;;;;;5.88;1.75;;;;;;;1.33;100.00;98573.13;4963895;28;20078;-82
2022/12/31 07:21:40;;;;;;;6.43;1.52;;;;;;;1.33;100.00;98570.56;4951643;28;20051;-81
2022/12/31 07:24:09;;;;;;;4.95;1.65;;;;;;;1.09;100.00;98554.19;4958897;28;20049;-81
2022/12/31 07:27:11;;;;;;;4.30;1.50;;;;;;;1.35;100.00;98595.44;4963282;28;21482;-82
2022/12/31 07:30:12;;;;;;;7.95;2.10;;;;;;;0.88;100.00;98537.69;4952909;28;20079;-81
2022/12/31 07:33:14;;;;;;;20.33;4.03;;;;;;;1.31;100.00;98608.44;4957238;28;20047;-81
2022/12/31 07:36:04;;;;;;;6.90;1.67;;;;;;;1.32;100.00;98622.16;4968462;28;20055;-81
2022/12/31 07:38:51;;;;;;;2.90;1.42;;;;;;;0.95;100.00;98570.09;4954969;28;20074;-81
2022/12/31 07:41:27;;;;;;;5.50;1.60;;;;;;;1.39;100.00;98636.53;4955521;28;20082;-81
2022/12/31 07:44:10;;;;;;;6.55;1.60;;;;;;;0.95;100.00;98595.88;4955003;28;20055;-82
2022/12/31 07:46:45;;;;;;;;;;;;;;;1.48;100.00;98653.44;4958690;28;20462;-82
2022/12/31 07:49:13;;;;;;;6.00;1.48;;;;;;;1.23;100.00;98625.91;4956008;28;20001;-82
2022/12/31 07:51:40;;;;;;;4.05;1.50;;;;;;;1.09;100.00;98605.72;4955060;29;20050;-82
2022/12/31 07:54:07;;;;;;;3.30;1.20;;;;;;;1.07;100.00;98611.84;4954769;28;20050;-81
2022/12/31 07:56:40;;;;;;;6.32;1.83;;;;;;;0.87;100.00;98600.44;4949582;28;20477;-80
2022/12/31 07:59:19;;;;;;;3.15;1.23;;;;;;;1.21;100.00;98681.00;4959223;28;20401;-80
2022/12/31 08:02:05;;;;;;;2.38;1.30;;;;;;;1.19;100.00;98659.56;4955641;28;20531;-80
2022/12/31 08:04:52;;;;;;;3.83;1.50;;;;;;;0.78;100.00;98629.09;4970082;28;20453;-80
2022/12/31 08:07:54;;;;;;;3.42;1.48;;;;;;;1.16;100.00;98675.97;4954869;28;20512;-80
2022/12/31 08:10:36;;;;;;;3.63;1.60;;;;;;;0.83;100.00;98627.19;4966840;28;20055;-83
2022/12/31 08:13:08;;;;;;;5.60;1.80;;;;;;;0.90;100.00;98649.31;4946698;29;20058;-82
2022/12/31 08:15:39;;;;;;;3.17;1.40;;;;;;;1.12;100.00;98693.28;4966815;28;20098;-82
2022/12/31 08:18:06;;;;;;;3.42;1.40;;;;;;;1.09;100.00;98693.38;4955027;28;20062;-82
2022/12/31 08:20:45;;;;;;;2.50;1.50;;;;;;;1.03;100.00;98678.09;4955377;28;20058;-83
2022/12/31 08:23:15;;;;;;;3.17;1.45;;;;;;;1.13;100.00;98710.44;4953533;28;20051;-80
2022/12/31 08:26:10;;;;;;;4.25;1.77;;;;;;;0.79;100.00;98666.00;4950692;28;20047;-80
2022/12/31 08:28:59;;;;;;;5.13;1.95;;;;;;;0.68;100.00;98672.31;4953679;28;20098;-81
2022/12/31 08:31:34;;;;;;;4.50;1.73;;;;;;;0.53;100.00;98654.72;4955125;29;20528;-80
2022/12/31 08:34:29;;;;;;;5.68;1.50;;;;;;;0.95;100.00;98729.03;4953246;28;20102;-80
2022/12/31 08:37:36;;;;;;;4.43;1.60;;;;;;;0.54;100.00;98680.44;4973851;28;20057;-81
2022/12/31 08:40:18;;;;;;;5.10;1.88;;;;;;;0.90;100.00;98746.38;4949459;28;20417;-81
2022/12/31 08:43:14;;;;;;;6.88;2.13;;;;;;;0.80;100.00;98745.81;4949861;28;20050;-81
2022/12/31 08:45:47;;;;;;;4.28;2.00;;;;;;;0.67;100.00;98742.72;4932625;28;20059;-81
2022/12/31 08:48:24;;;;;;;3.95;1.85;;;;;;;0.81;100.00;98772.41;4962627;28;20405;-82
2022/12/31 08:50:51;;;;;;;5.13;1.50;;;;;;;0.42;100.00;98727.16;4951708;28;20055;-81
2022/12/31 08:53:18;;;;;;;5.20;2.00;;;;;;;0.36;100.00;98717.88;4954576;28;20051;-81
2022/12/31 08:55:48;;;;;;;3.10;1.50;;;;;;;0.58;100.00;98753.31;4968447;28;20481;-81
2022/12/31 08:58:28;;;;;;;3.75;1.60;;;;;;;0.59;100.00;98747.28;4953207;29;20110;-81
2022/12/31 09:00:58;;;;;;;2.88;1.40;;;;;;;0.40;100.00;98723.78;4972441;28;20051;-81
2022/12/31 09:03:48;;;;;;;4.40;2.03;;;;;;;0.52;100.00;98743.19;4950742;28;21445;-81
2022/12/31 09:06:35;;;;;;;4.05;1.60;;;;;;;0.75;100.00;98783.75;4953733;28;20055;-82
2022/12/31 09:09:15;;;;;;;3.80;1.40;;;;;;;0.83;100.00;98798.97;4954443;28;20047;-81
2022/12/31 09:12:09;;;;;;;3.67;1.50;;;;;;;0.83;100.00;98804.13;4947947;28;20051;-81
2022/12/31 09:14:54;;;;;;;5.93;1.70;;;;;;;0.84;100.00;98806.66;4952233;28;20043;-81
2022/12/31 09:17:47;;;;;;;4.00;1.35;;;;;;;0.90;100.00;98803.91;4953058;28;20051;-81
2022/12/31 09:20:28;;;;;;;5.30;1.60;;;;;;;0.85;100.00;98810.06;4949495;28;20058;-82
2022/12/31 09:23:08;;;;;;;3.22;1.50;;;;;;;0.53;100.00;98760.31;4945923;28;20783;-81
2022/12/31 09:25:43;;;;;;;4.20;1.75;;;;;;;0.66;100.00;98778.84;4952960;28;20450;-81
2022/12/31 09:28:31;;;;;;;5.38;1.85;;;;;;;0.32;100.00;98736.88;4950415;29;20125;-82
2022/12/31 09:31:10;;;;;;;3.85;1.70;;;;;;;0.75;100.00;98805.19;4958251;28;20050;-80
2022/12/31 09:33:51;;;;;;;4.18;1.55;;;;;;;0.94;100.00;98826.13;4953252;28;20050;-80
2022/12/31 09:36:30;;;;;;;3.35;1.70;;;;;;;0.66;100.00;98799.47;4951115;29;20047;-81
2022/12/31 09:39:11;;;;;;;5.00;1.58;;;;;;;0.94;100.00;98833.00;4949900;28;20469;-80
2022/12/31 09:41:49;;;;;;;5.25;1.83;;;;;;;0.94;100.00;98836.44;4952606;28;20051;-81
2022/12/31 09:44:53;;;;;;;5.80;1.85;;;;;;;0.77;100.00;98815.44;4953280;29;20055;-80
2022/12/31 09:48:15;;;;;;;2.58;1.45;;;;;;;0.80;100.00;98809.34;4950900;29;20940;-80
2022/12/31 09:51:17;;;;;;;7.35;1.60;;;;;;;0.85;100.00;98848.72;4947710;28;20213;-82
2022/12/31 09:54:31;;;;;;;3.55;1.60;;;;;;;0.75;100.00;98830.09;4942109;28;20524;-80
2022/12/31 09:57:33;;;;;;;9.07;1.58;;;;;;;0.94;100.00;98851.06;4959652;28;20489;-83
2022/12/31 10:00:03;;;;;;;5.35;1.80;;;;;;;0.98;100.00;98862.97;4949217;28;20047;-83
2022/12/31 10:02:35;;;;;;;6.00;1.67;;;;;;;1.00;100.00;98865.50;4952132;28;20059;-84
2022/12/31 10:05:21;;;;;;;4.53;1.92;;;;;;;1.06;100.00;98871.31;4949744;29;20073;-84
2022/12/31 10:08:05;;;;;;;5.78;2.00;;;;;;;0.78;100.00;98835.19;4953005;28;20079;-83
2022/12/31 10:10:47;;;;;;;10.07;2.15;;;;;;;1.12;100.00;98889.19;4951861;29;20051;-83
2022/12/31 10:13:33;;;;;;;3.80;1.52;;;;;;;1.31;100.00;98892.06;4950241;29;20051;-83
2022/12/31 10:16:12;;;;;;;6.43;2.17;;;;;;;1.19;100.00;98866.66;4968641;28;20055;-83
2022/12/31 10:18:54;;;;;;;5.78;2.10;;;;;;;1.58;100.00;98902.47;4964014;28;20062;-83
2022/12/31 10:22:14;;;;;;;7.50;2.67;;;;;;;1.77;100.00;98917.38;4955672;28;20062;-83
2022/12/31 10:25:14;;;;;;;6.40;2.15;;;;;;;1.39;100.00;98848.00;4955912;28;20599;-85
2022/12/31 10:28:04;;;;;;;5.15;2.00;;;;;;;1.48;100.00;98852.03;4949508;28;20050;-83
2022/12/31 10:30:39;;;;;;;8.18;2.28;;;;;;;1.87;100.00;98911.03;4959019;28;20052;-83
2022/12/31 10:33:11;;;;;;;7.60;1.80;;;;;;;2.02;100.00;98932.91;4953768;28;20541;-83
2022/12/31 10:35:44;;;;;;;5.03;1.75;;;;;;;2.09;100.00;98939.59;4952986;28;20055;-83
2022/12/31 10:38:30;;;;;;;5.28;1.90;;;;;;;1.81;100.00;98894.00;4956647;29;20047;-83
2022/12/31 10:41:34;;;;;;;5.80;1.70;;;;;;;2.23;100.00;98944.31;4969833;28;20046;-84
2022/12/31 10:44:22;;;;;;;4.35;1.63;;;;;;;2.25;100.00;98948.53;4955741;28;20106;-83
2022/12/31 10:47:10;;;;;;;8.52;1.67;;;;;;;1.93;100.00;98897.94;4955713;28;20039;-83
2022/12/31 10:49:43;;;;;;;4.32;1.50;;;;;;;2.34;100.00;98954.28;4968906;28;20051;-84
2022/12/31 10:52:22;;;;;;;5.20;1.77;;;;;;;2.36;100.00;98952.53;4954289;28;20070;-84
2022/12/31 10:55:02;;;;;;;9.90;1.73;;;;;;;2.34;100.00;98955.16;4955923;28;20482;-83
2022/12/31 10:57:48;;;;;;;3.30;1.50;;;;;;;2.53;100.00;98945.03;4944771;28;20047;-84
2022/12/31 11:00:19;;;;;;;4.20;1.40;;;;;;;2.56;100.00;98944.94;4952589;28;20047;-83
2022/12/31 11:03:04;;;;;;;5.47;1.70;;;;;;;2.64;100.00;98950.72;4952065;28;20054;-83
2022/12/31 11:05:55;;;;;;;3.10;1.30;;;;;;;2.71;100.00;98953.06;4971230;28;20047;-83
2022/12/31 11:08:53;;;;;;;6.22;1.52;;;;;;;2.77;100.00;98950.28;4956292;28;21066;-84
2022/12/31 11:11:58;;;;;;;5.88;1.63;;;;;;;2.83;100.00;98943.19;4955454;28;20425;-83
2022/12/31 11:14:40;;;;;;;4.68;1.52;;;;;;;2.79;100.00;98951.91;4950032;28;20547;-84
2022/12/31 11:17:10;;;;;;;3.80;1.45;;;;;;;2.75;100.00;98960.69;4962072;28;20051;-84
2022/12/31 11:19:48;;;;;;;2.88;1.50;;;;;;;2.82;100.00;98962.16;4965813;28;20385;-84
2022/12/31 11:22:28;;;;;;;5.28;1.90;;;;;;;2.35;100.00;98912.09;4958838;28;20050;-84
2022/12/31 11:25:17;;;;;;;3.08;1.40;;;;;;;2.68;100.00;98961.78;4955773;28;20047;-84
2022/12/31 11:28:07;;;;;;;11.43;4.03;;;;;;;2.41;100.00;98925.66;4951612;28;20058;-83
2022/12/31 11:30:49;;;;;;;16.85;8.65;;;;;;;2.65;100.00;98959.28;4954989;29;20051;-84
2022/12/31 11:34:03;;;;;;;17.50;8.93;;;;;;;2.52;100.00;98930.44;4966255;28;20050;-84
2022/12/31 11:36:57;;;;;;;19.45;10.35;;;;;;;1.92;100.00;98842.03;4954861;28;20409;-84
2022/12/31 11:39:48;;;;;;;19.25;11.05;;;;;;;2.39;100.00;98924.84;4954790;28;20047;-84
2022/12/31 11:42:38;;;;;;;18.80;8.23;;;;;;;2.25;100.00;98901.22;4950769;28;20595;-84
2022/12/31 11:45:36;;;;;;;13.52;5.75;;;;;;;2.61;100.00;98945.63;4957736;28;20051;-84
2022/12/31 11:48:15;;;;;;;12.02;5.28;;;;;;;2.46;100.00;98933.22;4950846;29;20082;-84
2022/12/31 11:51:24;;;;;;;11.05;5.65;;;;;;;2.35;100.00;98894.00;4954094;28;20114;-83
2022/12/31 11:54:03;;;;;;;10.73;3.75;;;;;;;2.69;100.00;98947.13;4947829;28;20052;-83
2022/12/31 11:56:44;;;;;;;9.65;3.15;;;;;;;2.75;100.00;98954.69;4962821;28;20054;-83
2022/12/31 11:59:14;;;;;;;10.48;3.13;;;;;;;2.52;100.00;98907.19;4958909;28;20051;-84
2022/12/31 12:01:59;;;;;;;12.20;3.88;;;;;;;2.94;100.00;98955.72;4953884;28;20501;-83
2022/12/31 12:04:26;;;;;;;9.32;3.35;;;;;;;2.78;100.00;98916.66;4951013;28;20051;-83
2022/12/31 12:06:53;;;;;;;12.60;4.35;;;;;;;2.56;100.00;98885.53;4941892;29;20057;-83
2022/12/31 12:09:29;;;;;;;8.23;3.20;;;;;;;2.83;100.00;98927.66;4955386;28;20492;-83
2022/12/31 12:12:00;;;;;;;7.70;3.03;;;;;;;2.99;100.00;98947.78;4951539;28;20062;-83
2022/12/31 12:14:34;;;;;;;9.70;2.72;;;;;;;3.05;100.00;98960.53;4952056;28;20057;-83
2022/12/31 12:17:05;;;;;;;10.30;2.95;;;;;;;2.87;100.00;98931.00;4953994;28;20144;-83
2022/12/31 12:19:34;;;;;;;10.88;2.92;;;;;;;3.01;100.00;98961.50;4943159;29;20078;-84